Williamsville, Michigan
Current Conditions -  °F | °C
As of 1:14 AM on Thursday 23 Oct 2014 (Local Time) from KOZW Reporting Station
Haze Haze  
Wind Chill: 34°   Ceiling: Unl
Heat Index: 34°   Visibility: 5mi
Dew Point: 33°   Wind: 0mph
Humidity: 98%   Direction: NA
Pressure: 30.28"   Gusts: NA
Location:  42.4581°N, 84.074°W
Report Text: KOZW 230514Z AUTO 00000KT 5SM BR CLR 01/01 A3028 RMK AO2 T00110008
Loading
Personal Weather Stations






























Interactive Weather Map
Tropical Storm Tracking
New forecast layout! Learn more

10-Day Weather Forecast

Advertisements
Track Severe Weather on mobile